Time;durP1;ratioP1;P1;durP2;ratioP2;P2;SDS_P1;SDS_P2;PMS_P1;PMS_P2;Temp;Humidity;BMP_temperature;BMP_pressure;BME280_temperature;BME280_humidity;BME280_pressure;Samples;Min_cycle;Max_cycle;Signal;HPM_P1;HPM_P2
2023/06/04 00:02:59;;;;;;;1.90;1.10;;;12.30;75.80;;;11.29;62.64;100427.34;10089769;28;96638;-89
2023/06/04 00:08:02;;;;;;;1.97;1.03;;;12.40;75.50;;;11.27;62.96;100424.00;10096924;28;96783;-89
2023/06/04 00:13:06;;;;;;;3.20;1.33;;;12.40;75.70;;;11.15;63.67;100444.78;10064664;28;96563;-86
2023/06/04 00:18:10;;;;;;;1.93;1.17;;;12.30;76.30;;;11.13;64.33;100437.97;10065230;28;97652;-89
2023/06/04 00:23:14;;;;;;;2.70;1.20;;;12.30;76.40;;;11.14;63.56;100429.00;10095121;28;97377;-89
2023/06/04 00:28:17;;;;;;;4.63;1.40;;;12.30;76.30;;;11.16;63.52;100416.38;10088835;28;98159;-89
2023/06/04 00:33:20;;;;;;;2.50;1.20;;;12.30;76.30;;;11.10;64.33;100417.88;10091958;28;96685;-87
2023/06/04 00:38:23;;;;;;;2.83;1.20;;;12.20;76.70;;;11.09;64.29;100407.38;10074827;28;98397;-85
2023/06/04 00:43:27;;;;;;;2.20;1.10;;;12.20;77.10;;;11.16;63.71;100403.09;10057621;28;98677;-85
2023/06/04 00:48:30;;;;;;;1.60;0.90;;;12.30;77.00;;;11.26;62.89;100411.69;10083738;28;97205;-84
2023/06/04 00:53:33;;;;;;;2.77;1.10;;;12.40;76.60;;;11.33;62.87;100418.00;10078835;28;98334;-85
2023/06/04 00:58:40;;;;;;;3.43;1.00;;;12.40;76.50;;;11.41;62.21;100410.03;10109884;28;97452;-85
2023/06/04 01:03:48;;;;;;;3.00;0.87;;;12.50;76.00;;;11.54;61.36;100414.84;10081952;28;96710;-85
2023/06/04 01:08:54;;;;;;;3.03;0.90;;;12.60;75.60;;;11.58;61.65;100410.84;10076911;28;96649;-84
2023/06/04 01:13:57;;;;;;;3.10;1.47;;;12.70;75.70;;;11.52;62.49;100416.84;10087654;28;97767;-84
2023/06/04 01:19:04;;;;;;;2.57;1.20;;;12.60;76.20;;;11.41;63.32;100415.38;10094678;28;96698;-89
2023/06/04 01:24:09;;;;;;;3.53;1.30;;;12.50;76.70;;;11.36;64.33;100415.03;10083875;28;96759;-86
2023/06/04 01:29:12;;;;;;;1.60;1.10;;;12.50;77.30;;;11.33;64.51;100418.00;10114559;28;98442;-86
2023/06/04 01:34:15;;;;;;;2.63;1.40;;;12.50;77.60;;;11.30;64.62;100412.22;10064144;28;96752;-86
2023/06/04 01:39:18;;;;;;;2.47;1.07;;;12.40;77.90;;;11.27;65.32;100402.72;10083999;28;98613;-85
2023/06/04 01:44:21;;;;;;;2.40;1.13;;;12.40;78.40;;;11.25;65.73;100400.22;10080488;28;98550;-84
2023/06/04 01:49:24;;;;;;;2.13;0.90;;;12.40;78.70;;;11.29;65.56;100411.38;10085740;28;96604;-85
2023/06/04 01:54:29;;;;;;;2.40;0.90;;;12.40;78.60;;;11.32;64.92;100404.88;10116377;28;97138;-85
2023/06/04 01:59:33;;;;;;;1.97;0.80;;;12.40;78.50;;;11.26;65.49;100401.88;10098889;28;97578;-84
2023/06/04 02:04:36;;;;;;;2.10;1.00;;;12.40;78.80;;;11.22;65.52;100405.91;10097513;28;96706;-84
2023/06/04 02:09:40;;;;;;;3.37;1.20;;;12.30;78.90;;;11.19;65.55;100410.72;10100108;28;97061;-84
2023/06/04 02:14:46;;;;;;;1.97;0.93;;;12.30;79.10;;;11.12;65.75;100415.88;10099444;28;96600;-90
2023/06/04 02:19:50;;;;;;;2.03;1.00;;;12.30;79.30;;;11.06;66.60;100426.34;10067941;28;96794;-90
2023/06/04 02:24:53;;;;;;;4.57;1.40;;;12.20;79.80;;;10.90;66.88;100421.84;10067856;28;96657;-90
2023/06/04 02:29:56;;;;;;;2.57;1.00;;;12.00;80.50;;;10.82;66.70;100425.31;10078916;28;97262;-90
2023/06/04 02:35:00;;;;;;;2.40;1.03;;;11.90;80.60;;;10.87;65.67;100428.31;10086674;28;99147;-90
2023/06/04 02:40:04;;;;;;;2.23;1.10;;;12.00;80.00;;;10.93;65.43;100430.31;10101118;28;96504;-90
2023/06/04 02:45:07;;;;;;;4.60;1.30;;;12.10;79.70;;;10.97;65.02;100431.66;10084098;28;96650;-91
2023/06/04 02:50:11;;;;;;;4.07;1.27;;;12.10;79.40;;;11.00;64.66;100430.50;10075254;28;97822;-92
2023/06/04 02:55:14;;;;;;;2.00;0.97;;;12.10;79.30;;;10.94;64.89;100418.69;10101093;28;96468;-90
2023/06/04 03:00:18;;;;;;;1.43;0.70;;;12.10;79.40;;;10.96;64.95;100427.31;10114632;28;96674;-90
2023/06/04 03:05:24;;;;;;;1.87;1.00;;;12.10;79.40;;;10.94;65.34;100426.66;10076304;28;98010;-91
2023/06/04 03:10:27;;;;;;;1.97;0.87;;;12.10;79.60;;;10.92;65.95;100439.31;10092021;28;97186;-90
2023/06/04 03:15:30;;;;;;;3.70;1.83;;;12.10;80.00;;;10.85;66.72;100435.59;10104594;28;96869;-90
2023/06/04 03:20:38;;;;;;;3.57;1.10;;;12.00;80.70;;;10.74;66.76;100438.59;10097826;28;96664;-90
2023/06/04 03:25:41;;;;;;;1.80;1.00;;;11.90;81.00;;;10.74;66.94;100435.94;10076645;28;96629;-90
2023/06/04 03:30:44;;;;;;;3.23;1.10;;;11.90;81.00;;;10.78;67.56;100439.91;10101354;28;96488;-93
2023/06/04 03:35:48;;;;;;;4.77;1.13;;;12.00;81.50;;;10.80;67.58;100434.47;10081500;28;97505;-90
2023/06/04 03:40:52;;;;;;;1.83;1.00;;;11.90;81.80;;;10.87;67.51;100433.63;10083100;28;96941;-90
2023/06/04 03:45:55;;;;;;;1.67;0.90;;;12.00;81.90;;;10.99;67.88;100434.97;10093057;28;96739;-91
2023/06/04 03:50:58;;;;;;;2.87;1.20;;;12.10;82.10;;;11.10;67.13;100439.16;10080666;28;96555;-91
2023/06/04 03:56:02;;;;;;;1.53;0.73;;;12.20;81.80;;;11.11;66.76;100446.13;10113839;28;99533;-90
2023/06/04 04:01:06;;;;;;;3.00;1.20;;;12.20;81.90;;;11.24;67.18;100461.59;10082559;28;96442;-89
2023/06/04 04:06:10;;;;;;;4.10;1.13;;;12.30;82.20;;;11.41;68.38;100457.13;10064831;28;96833;-89
2023/06/04 04:11:15;;;;;;;3.10;1.60;;;12.50;82.60;;;11.59;69.06;100449.78;10078166;28;96613;-91
2023/06/04 04:16:18;;;;;;;4.03;1.50;;;12.70;82.90;;;11.82;68.90;100449.13;10110361;28;96685;-91
2023/06/04 04:21:23;;;;;;;2.17;1.00;;;12.90;82.90;;;12.04;68.90;100456.34;10070783;28;96630;-92
2023/06/04 04:26:27;;;;;;;5.47;1.17;;;13.10;83.10;;;12.27;68.81;100469.78;10065539;28;97017;-92
2023/06/04 04:31:30;;;;;;;4.93;1.20;;;13.40;83.10;;;12.45;68.64;100473.03;10092495;28;96597;-92
2023/06/04 04:36:36;;;;;;;4.03;1.60;;;13.60;83.20;;;12.63;69.25;100479.94;10082191;28;96668;-92
2023/06/04 04:41:39;;;;;;;4.93;1.30;;;13.80;83.50;;;12.80;68.29;100476.19;10098273;28;96629;-91
2023/06/04 04:46:43;;;;;;;3.43;1.10;;;14.00;83.10;;;12.99;67.87;100474.91;10094052;28;98573;-91
2023/06/04 04:51:46;;;;;;;4.03;1.40;;;14.20;82.90;;;13.20;66.77;100474.28;10088561;28;97495;-91
2023/06/04 04:56:49;;;;;;;2.72;1.33;;;14.40;82.80;;;13.40;66.58;100472.81;10123704;28;96470;-91
2023/06/04 05:02:12;;;;;;;2.90;1.20;;;14.60;82.70;;;13.61;65.97;100474.78;10127103;28;97099;-90
2023/06/04 05:07:16;;;;;;;1.80;1.00;;;14.80;82.30;;;13.83;64.89;100473.91;10114602;28;98232;-92
2023/06/04 05:12:19;;;;;;;2.15;1.02;;;15.00;81.90;;;14.03;63.56;100474.19;10113644;28;96732;-92
2023/06/04 05:17:29;;;;;;;2.53;0.97;;;15.20;81.30;;;14.19;62.56;100481.22;10104575;28;96701;-92
2023/06/04 05:22:33;;;;;;;2.08;1.00;;;15.40;80.50;;;14.40;61.04;100480.50;10090874;28;96723;-91
2023/06/04 05:27:36;;;;;;;1.92;0.88;;;15.60;79.60;;;14.56;60.66;100479.47;10082590;28;97200;-93
2023/06/04 05:32:40;;;;;;;3.13;0.90;;;15.70;79.00;;;14.70;60.02;100475.97;10075087;28;97233;-92
2023/06/04 05:37:45;;;;;;;1.55;0.88;;;15.90;78.50;;;14.75;59.28;100473.50;10084345;28;96615;-92
2023/06/04 05:42:49;;;;;;;2.25;1.08;;;15.90;78.00;;;14.85;58.51;100484.75;10094996;28;97387;-92
2023/06/04 05:47:54;;;;;;;3.17;1.15;;;16.00;77.60;;;14.90;60.75;100490.38;10077313;28;97682;-91
2023/06/04 05:52:58;;;;;;;2.30;1.00;;;16.10;78.40;;;15.01;61.32;100489.06;10088464;28;96853;-91
2023/06/04 05:58:01;;;;;;;4.57;1.40;;;16.20;78.70;;;15.14;61.93;100489.19;10099876;28;96744;-91
2023/06/04 06:03:06;;;;;;;3.22;1.33;;;16.30;79.00;;;15.27;61.55;100493.84;10085809;28;96713;-92
2023/06/04 06:08:09;;;;;;;2.03;1.27;;;16.40;79.00;;;15.42;61.42;100501.81;10076825;28;96704;-90
2023/06/04 06:13:12;;;;;;;2.85;1.02;;;16.50;79.20;;;15.70;60.73;100499.19;10100315;28;96985;-92
2023/06/04 06:18:15;;;;;;;1.42;0.98;;;16.80;78.90;;;15.95;54.52;100494.22;10052138;28;97235;-92
2023/06/04 06:23:21;;;;;;;3.33;1.20;;;17.10;76.00;;;16.17;53.01;100493.13;10098937;28;96684;-91
2023/06/04 06:28:26;;;;;;;5.97;1.00;;;17.20;74.50;;;16.34;50.07;100490.97;10080937;28;97503;-91
2023/06/04 06:33:31;;;;;;;4.90;1.17;;;17.50;72.30;;;16.51;50.52;100491.47;10077097;28;97134;-91
2023/06/04 06:38:34;;;;;;;2.05;0.90;;;17.70;71.60;;;16.74;49.95;100493.88;10093685;28;96947;-92
2023/06/04 06:43:37;;;;;;;2.28;1.15;;;17.90;71.00;;;17.04;48.30;100497.06;10087853;28;97612;-91
2023/06/04 06:48:43;;;;;;;1.77;1.20;;;18.20;69.70;;;17.35;44.22;100505.38;10070368;28;96879;-91
2023/06/04 06:53:45;;;;;;;3.05;1.20;;;18.50;66.40;;;17.57;44.10;100503.34;10099608;28;96524;-91
2023/06/04 06:58:49;;;;;;;4.55;1.00;;;18.70;65.00;;;17.78;44.93;100505.03;10102100;28;98620;-92
2023/06/04 07:03:52;;;;;;;2.50;0.93;;;18.90;64.70;;;17.97;44.25;100506.03;10093392;28;98189;-93
2023/06/04 07:08:55;;;;;;;3.85;1.10;;;19.10;64.20;;;18.06;43.93;100514.72;10088741;28;96747;-94
2023/06/04 07:13:58;;;;;;;3.17;1.10;;;19.20;63.50;;;18.12;43.33;100514.72;10087296;28;98577;-93
2023/06/04 07:19:02;;;;;;;2.58;0.95;;;19.30;62.80;;;18.17;42.64;100511.38;10084919;28;96697;-92
2023/06/04 07:24:06;;;;;;;2.58;1.20;;;19.40;62.30;;;18.25;42.91;100521.94;10093338;28;96608;-90
2023/06/04 07:29:09;;;;;;;3.28;1.00;;;19.40;62.00;;;18.23;41.29;100520.47;10061067;28;97993;-91
2023/06/04 07:34:12;;;;;;;4.93;0.80;;;19.40;60.70;;;18.17;40.42;100514.06;10056772;28;98108;-91
2023/06/04 07:39:15;;;;;;;2.75;1.00;;;19.40;60.00;;;18.33;40.12;100510.09;10047461;28;96664;-91
2023/06/04 07:44:18;;;;;;;2.15;1.13;;;19.50;59.50;;;18.51;40.15;100509.44;10074166;28;96716;-90
2023/06/04 07:49:21;;;;;;;3.95;1.20;;;19.60;59.00;;;18.66;40.94;100510.84;10062136;28;96691;-91
2023/06/04 07:54:25;;;;;;;3.15;1.20;;;19.70;58.80;;;18.75;40.27;100513.31;10085683;28;96545;-90
2023/06/04 07:59:29;;;;;;;5.10;1.25;;;19.80;58.80;;;18.90;41.18;100513.88;10073415;28;96666;-92
2023/06/04 08:04:33;;;;;;;3.65;0.98;;;20.00;59.30;;;19.09;40.96;100507.53;10085054;28;98239;-93
2023/06/04 08:09:37;;;;;;;5.18;1.02;;;20.20;59.10;;;19.18;40.72;100516.19;10044295;28;97681;-92
2023/06/04 08:14:40;;;;;;;2.55;1.15;;;20.30;59.10;;;19.27;39.88;100522.97;10066380;28;98784;-93
2023/06/04 08:19:43;;;;;;;2.60;0.90;;;20.30;58.30;;;19.30;40.33;100527.09;10055003;28;97889;-93
2023/06/04 08:24:46;;;;;;;1.58;0.88;;;20.30;58.70;;;19.32;40.53;100525.03;10086322;28;96966;-92
2023/06/04 08:29:50;;;;;;;3.70;1.13;;;20.50;58.40;;;19.37;40.82;100526.03;10074565;28;96707;-91
2023/06/04 08:34:53;;;;;;;2.60;0.88;;;20.50;58.50;;;19.33;40.25;100518.59;10065726;28;98640;-91
2023/06/04 08:39:57;;;;;;;2.92;1.00;;;20.40;58.90;;;19.32;41.73;100517.78;10063704;28;97850;-90
2023/06/04 08:45:00;;;;;;;4.78;1.30;;;20.40;59.30;;;19.39;42.08;100526.63;10055400;28;96746;-91
2023/06/04 08:50:09;;;;;;;2.22;0.77;;;20.50;59.70;;;19.46;41.40;100513.94;10079183;28;97273;-90
2023/06/04 08:55:14;;;;;;;2.20;1.10;;;20.50;59.30;;;19.48;40.57;100508.31;10074015;28;96544;-90
2023/06/04 09:00:18;;;;;;;3.42;1.40;;;20.60;58.70;;;19.49;40.17;100513.50;10056602;28;96707;-91
2023/06/04 09:05:22;;;;;;;2.55;1.13;;;20.60;58.10;;;19.55;40.61;100521.75;10046515;28;98861;-91
2023/06/04 09:10:26;;;;;;;6.07;2.35;;;20.70;58.70;;;19.70;41.54;100512.31;10068874;28;97354;-94
2023/06/04 09:15:29;;;;;;;2.53;1.23;;;20.80;59.00;;;19.92;41.83;100520.03;10070859;28;98431;-90
2023/06/04 09:20:33;;;;;;;3.22;1.30;;;21.00;59.20;;;20.16;42.37;100529.16;10069858;28;98488;-91
2023/06/04 09:25:43;;;;;;;2.33;1.20;;;21.30;59.40;;;20.21;41.27;100527.44;10070638;28;97612;-87
2023/06/04 09:30:53;;;;;;;;;;;21.30;58.90;;;20.33;40.98;100511.31;10069679;28;98744;-88
2023/06/04 09:35:57;;;;;;;3.67;1.15;;;21.40;59.00;;;20.42;40.68;100512.66;10107075;28;97656;-88
2023/06/04 09:41:00;;;;;;;7.50;1.17;;;21.60;58.80;;;20.46;41.66;100513.09;10096388;28;98669;-88
2023/06/04 09:46:14;;;;;;;2.85;0.90;;;21.70;59.10;;;20.61;40.78;100504.59;10092568;28;98203;-88
2023/06/04 09:51:19;;;;;;;2.28;0.93;;;21.80;58.40;;;20.72;40.66;100506.53;10109050;28;97380;-88
2023/06/04 09:56:23;;;;;;;3.67;1.10;;;21.90;58.80;;;20.79;39.42;100509.97;10106315;28;96670;-87
2023/06/04 10:01:28;;;;;;;6.55;1.40;;;22.00;57.70;;;20.65;39.83;100506.63;10078227;28;96613;-88
2023/06/04 10:06:36;;;;;;;2.45;1.10;;;21.80;57.40;;;20.77;38.74;100509.38;10089568;28;96987;-90
2023/06/04 10:11:55;;;;;;;3.42;1.30;;;21.90;56.90;;;20.89;38.14;100502.16;10070307;28;98210;-88
2023/06/04 10:16:59;;;;;;;5.30;1.50;;;21.90;56.50;;;21.14;39.11;100506.59;10096235;28;97351;-88
2023/06/04 10:22:03;;;;;;;4.20;1.42;;;22.20;57.00;;;21.56;39.49;100507.44;10114035;28;97498;-88
2023/06/04 10:27:10;;;;;;;4.80;1.30;;;22.60;57.00;;;21.94;37.96;100514.31;10104617;28;96845;-88
2023/06/04 10:32:14;;;;;;;3.80;1.30;;;23.00;56.30;;;22.12;38.09;100508.81;10093056;28;98602;-89
2023/06/04 10:37:22;;;;;;;3.22;1.20;;;23.30;55.70;;;22.29;36.42;100504.31;10062287;28;98119;-88
2023/06/04 10:42:25;;;;;;;7.43;1.73;;;23.50;55.20;;;22.25;34.98;100511.28;10097352;28;96711;-87
2023/06/04 10:47:36;;;;;;;4.68;1.30;;;23.40;53.60;;;22.19;35.56;100506.81;10077084;28;97617;-88
2023/06/04 10:52:55;;;;;;;1.77;1.08;;;23.30;53.50;;;22.33;36.83;100497.38;10095081;28;96621;-87
2023/06/04 10:58:00;;;;;;;4.25;1.42;;;23.50;54.20;;;22.43;36.92;100494.03;10089624;28;96967;-88
2023/06/04 11:03:09;;;;;;;2.97;1.35;;;23.60;54.00;;;22.67;36.14;100495.66;10089389;28;96589;-87
2023/06/04 11:08:14;;;;;;;2.63;1.20;;;23.80;53.80;;;23.01;37.25;100486.81;10075698;28;96785;-88
2023/06/04 11:13:26;;;;;;;2.28;1.00;;;24.20;54.60;;;23.36;36.39;100492.88;10085339;28;97726;-88
2023/06/04 11:18:29;;;;;;;2.63;1.27;;;24.50;54.20;;;23.51;35.40;100486.91;10077770;28;97332;-87
2023/06/04 11:23:33;;;;;;;3.22;1.50;;;24.70;53.50;;;23.55;36.36;100481.81;10081417;28;98259;-88
2023/06/04 11:28:38;;;;;;;3.85;1.55;;;24.80;53.90;;;23.60;36.38;100477.28;10050950;28;96777;-86
2023/06/04 11:33:44;;;;;;;4.13;1.40;;;24.80;53.80;;;23.60;36.06;100485.41;10075909;28;96896;-85
2023/06/04 11:39:02;;;;;;;3.05;1.33;;;24.80;53.60;;;23.49;36.36;100484.44;10070438;28;96794;-89
2023/06/04 11:44:06;;;;;;;4.43;1.13;;;24.70;53.40;;;23.40;36.00;100480.50;10084100;28;96734;-89
2023/06/04 11:49:16;;;;;;;2.90;1.45;;;24.50;53.60;;;23.27;35.67;100474.53;10067519;28;97956;-89
2023/06/04 11:54:21;;;;;;;6.03;1.58;;;24.30;53.40;;;23.15;35.82;100494.44;10041491;28;96660;-89
2023/06/04 11:59:24;;;;;;;5.13;1.60;;;24.30;53.40;;;23.05;35.84;100488.81;10042618;28;96703;-89
2023/06/04 12:04:31;;;;;;;9.20;1.75;;;24.20;53.30;;;23.08;35.34;100492.91;10065060;28;99577;-89
2023/06/04 12:09:40;;;;;;;3.22;1.13;;;24.20;53.00;;;22.96;34.95;100482.94;10054502;28;96592;-89
2023/06/04 12:14:44;;;;;;;2.17;1.40;;;24.20;52.90;;;22.98;35.81;100490.03;10088163;28;96795;-89
2023/06/04 12:19:50;;;;;;;6.07;1.90;;;24.10;53.10;;;22.98;35.44;100496.28;10050403;28;97346;-89
2023/06/04 12:24:57;;;;;;;2.22;1.45;;;24.10;52.70;;;22.90;35.27;100493.94;10059748;28;98398;-88
2023/06/04 12:30:04;;;;;;;3.13;1.40;;;24.10;52.80;;;22.86;35.73;100493.59;10087387;28;96716;-88
2023/06/04 12:35:07;;;;;;;2.63;1.80;;;24.10;52.70;;;22.84;35.55;100494.88;10074918;28;97222;-88
2023/06/04 12:40:11;;;;;;;3.38;2.00;;;24.00;52.50;;;22.75;36.33;100488.22;10109497;28;96620;-89
2023/06/04 12:45:15;;;;;;;3.80;1.75;;;23.90;53.00;;;22.65;35.86;100494.22;10092099;28;96820;-89
2023/06/04 12:50:18;;;;;;;4.95;1.40;;;23.80;53.10;;;22.54;36.26;100498.59;10108774;28;96733;-88
2023/06/04 12:55:24;;;;;;;4.85;1.77;;;23.70;53.30;;;22.43;36.91;100484.06;10088297;28;96617;-89
2023/06/04 13:00:30;;;;;;;3.22;1.25;;;23.60;54.00;;;22.39;37.61;100480.19;10111919;28;98541;-89
2023/06/04 13:05:33;;;;;;;3.08;1.67;;;23.50;54.40;;;22.36;37.78;100487.94;10077084;28;99177;-88
2023/06/04 13:10:36;;;;;;;2.67;1.40;;;23.50;54.50;;;22.35;38.14;100487.13;10104816;28;98311;-88
2023/06/04 13:15:39;;;;;;;2.95;1.27;;;23.50;54.50;;;22.29;39.16;100481.84;10082877;28;96700;-88
2023/06/04 13:20:46;;;;;;;3.55;1.70;;;23.40;55.10;;;22.09;39.79;100480.34;10084648;28;97961;-89
2023/06/04 13:25:49;;;;;;;3.10;1.60;;;23.30;55.60;;;22.00;41.22;100481.72;10075202;28;97502;-88
2023/06/04 13:30:53;;;;;;;3.25;1.67;;;23.10;56.60;;;21.93;40.70;100478.31;10067329;28;97840;-88
2023/06/04 13:35:55;;;;;;;2.72;1.50;;;23.10;56.70;;;21.95;40.69;100472.66;10096867;28;98658;-89
2023/06/04 13:40:59;;;;;;;1.92;1.30;;;23.00;56.70;;;21.88;41.01;100475.47;10079601;28;96897;-88
2023/06/04 13:46:04;;;;;;;2.97;1.25;;;23.00;57.60;;;21.73;41.00;100465.16;10068996;28;97180;-89
2023/06/04 13:51:07;;;;;;;3.67;1.40;;;22.80;57.60;;;21.68;42.66;100469.59;10078690;28;97886;-87
2023/06/04 13:56:10;;;;;;;4.35;1.55;;;22.70;58.90;;;21.61;41.80;100475.94;10076746;28;96748;-87
2023/06/04 14:01:14;;;;;;;4.72;1.48;;;22.60;58.70;;;21.48;43.96;100473.47;10094865;28;98476;-88
2023/06/04 14:06:17;;;;;;;2.97;1.50;;;22.40;59.90;;;21.36;42.23;100467.22;10115658;28;98009;-87
2023/06/04 14:11:20;;;;;;;2.92;1.45;;;22.30;59.40;;;21.29;43.93;100461.06;10061179;28;97315;-88
2023/06/04 14:16:23;;;;;;;5.57;1.63;;;22.20;60.40;;;21.21;46.01;100456.81;10099568;28;96752;-91
2023/06/04 14:21:27;;;;;;;6.97;1.63;;;22.10;61.80;;;20.99;43.95;100456.53;10093038;28;96806;-91
2023/06/04 14:26:30;;;;;;;3.35;1.60;;;21.90;61.30;;;20.76;43.95;100459.13;10084168;28;98107;-94
2023/06/04 14:31:33;;;;;;;4.05;1.60;;;21.70;60.80;;;20.60;44.19;100465.97;10073626;28;98494;-91
2023/06/04 14:36:36;;;;;;;3.63;1.52;;;21.50;61.10;;;20.46;45.33;100459.09;10107067;28;96771;-92
2023/06/04 14:41:39;;;;;;;4.68;1.58;;;21.40;61.70;;;20.32;47.65;100463.78;10096110;28;98062;-92
2023/06/04 14:46:43;;;;;;;3.30;1.27;;;21.20;63.50;;;20.23;49.65;100460.56;10084208;28;98529;-95
2023/06/04 14:51:46;;;;;;;2.38;1.85;;;21.10;65.30;;;20.14;52.40;100455.69;10072127;28;96708;-95
2023/06/04 14:56:49;;;;;;;2.28;1.25;;;21.00;67.50;;;20.05;54.31;100464.09;10103808;28;96977;-96
2023/06/04 15:01:53;;;;;;;2.58;1.20;;;21.00;69.20;;;19.99;55.98;100456.88;10103021;28;98121;-95
2023/06/04 15:06:56;;;;;;;7.63;1.70;;;20.90;70.40;;;19.91;57.62;100461.72;10078156;28;96583;-96
2023/06/04 15:11:59;;;;;;;2.55;1.55;;;20.80;72.30;;;19.80;59.26;100457.91;10104550;28;98026;-94
2023/06/04 15:17:06;;;;;;;2.88;1.58;;;20.70;73.90;;;19.70;59.61;100444.94;10085329;28;96602;-96
2023/06/04 15:22:09;;;;;;;4.38;1.75;;;20.70;74.80;;;19.59;58.98;100440.25;10076892;28;96383;-95
2023/06/04 15:27:12;;;;;;;4.18;1.75;;;20.50;74.90;;;19.45;59.31;100436.81;10101580;28;96797;-91
2023/06/04 15:32:15;;;;;;;3.28;1.88;;;20.40;75.10;;;19.36;58.52;100435.44;10098998;28;96613;-92
2023/06/04 15:37:18;;;;;;;2.42;1.65;;;20.30;75.00;;;19.31;57.71;100429.91;10101046;28;96658;-95
2023/06/04 15:42:21;;;;;;;2.50;1.58;;;20.20;74.80;;;19.35;57.45;100433.78;10134843;28;96605;-93
2023/06/04 15:47:24;;;;;;;2.78;1.80;;;20.30;74.30;;;19.34;57.15;100424.06;10087465;28;97116;-95
2023/06/04 15:52:27;;;;;;;5.40;1.60;;;20.30;74.20;;;19.41;57.79;100424.00;10099554;28;97320;-93
2023/06/04 15:57:30;;;;;;;2.80;1.50;;;20.40;74.40;;;19.48;57.61;100430.16;10092541;28;97822;-95
2023/06/04 16:02:33;;;;;;;3.08;1.42;;;20.40;74.20;;;19.46;56.65;100427.69;10132723;28;96840;-96
2023/06/04 16:07:37;;;;;;;3.60;1.60;;;20.40;74.00;;;19.45;56.41;100430.63;10111792;28;97307;-92
2023/06/04 16:12:40;;;;;;;4.18;1.58;;;20.40;73.90;;;19.41;56.27;100424.00;10078157;28;96687;-93
2023/06/04 16:17:46;;;;;;;5.47;1.88;;;20.40;73.80;;;19.37;56.07;100428.19;10076700;28;97782;-93
2023/06/04 16:22:50;;;;;;;4.90;1.77;;;20.30;73.70;;;19.33;56.05;100421.59;10103268;28;96756;-94
2023/06/04 16:27:53;;;;;;;5.15;1.80;;;20.30;73.60;;;19.32;55.80;100415.38;10116584;28;96681;-95
2023/06/04 16:32:56;;;;;;;5.43;2.30;;;20.20;73.50;;;19.32;55.55;100417.25;10089299;28;96732;-93
2023/06/04 16:38:00;;;;;;;4.85;2.00;;;20.30;73.10;;;19.32;55.07;100426.16;10092108;28;96769;-93
2023/06/04 16:43:05;;;;;;;4.93;2.00;;;20.30;73.00;;;19.27;55.28;100426.00;10115007;28;96788;-90
2023/06/04 16:48:08;;;;;;;4.10;2.47;;;20.20;73.00;;;19.24;55.07;100435.31;10096580;28;96584;-91
2023/06/04 16:53:11;;;;;;;4.47;3.17;;;20.20;73.00;;;19.21;56.06;100424.19;10110106;28;98473;-93
2023/06/04 16:58:14;;;;;;;3.70;2.08;;;20.10;73.50;;;19.22;56.63;100420.44;10114361;28;96595;-93
2023/06/04 17:03:17;;;;;;;5.32;2.17;;;20.10;73.80;;;19.17;56.12;100418.38;10084689;28;97814;-92
2023/06/04 17:08:21;;;;;;;6.78;1.75;;;20.10;74.00;;;19.17;56.53;100418.38;10087297;28;96636;-91
2023/06/04 17:13:24;;;;;;;2.13;1.67;;;20.10;74.10;;;19.16;56.39;100410.53;10096594;28;96939;-89
2023/06/04 17:18:27;;;;;;;7.30;2.40;;;20.10;74.20;;;19.13;55.56;100411.81;10104540;28;96799;-89
2023/06/04 17:23:30;;;;;;;6.20;2.35;;;20.10;73.90;;;19.13;55.28;100405.56;10074686;28;97350;-89
2023/06/04 17:28:34;;;;;;;4.35;2.10;;;20.10;73.60;;;19.13;55.57;100413.66;10110118;28;96824;-89
2023/06/04 17:33:37;;;;;;;4.10;2.10;;;20.00;73.50;;;19.10;54.72;100408.72;10091355;28;96588;-88
2023/06/04 17:38:40;;;;;;;3.65;2.00;;;20.00;73.10;;;19.07;54.58;100411.81;10078145;28;97409;-88
2023/06/04 17:43:43;;;;;;;2.65;1.75;;;20.00;72.90;;;19.06;54.27;100407.50;10112093;28;96617;-87
2023/06/04 17:48:46;;;;;;;3.80;1.85;;;20.00;72.60;;;19.03;54.35;100410.63;10091066;28;96661;-89
2023/06/04 17:53:49;;;;;;;5.57;1.90;;;19.90;72.80;;;18.99;54.34;100411.06;10095710;28;96706;-90
2023/06/04 17:58:52;;;;;;;4.07;2.13;;;19.90;72.80;;;18.97;54.47;100418.53;10080521;28;97463;-91
2023/06/04 18:03:55;;;;;;;4.30;1.67;;;19.90;72.70;;;18.96;54.18;100419.59;10093055;28;98887;-89
2023/06/04 18:09:00;;;;;;;2.67;1.85;;;19.90;72.60;;;19.02;54.09;100425.16;10108021;28;97112;-88
2023/06/04 18:14:04;;;;;;;4.50;1.90;;;20.00;72.50;;;19.02;54.25;100419.75;10099079;28;96702;-88
2023/06/04 18:19:09;;;;;;;12.05;2.58;;;20.00;72.10;;;19.02;54.77;100425.16;10082131;28;98821;-88
2023/06/04 18:24:12;;;;;;;4.75;2.47;;;20.00;72.50;;;18.95;55.24;100415.25;10081925;28;98391;-89
2023/06/04 18:29:15;;;;;;;5.32;1.80;;;20.00;72.80;;;18.92;55.48;100414.84;10108067;28;96740;-88
2023/06/04 18:34:20;;;;;;;5.35;1.80;;;19.90;73.10;;;18.85;55.43;100419.44;10078655;28;96691;-88
2023/06/04 18:39:26;;;;;;;5.22;2.17;;;19.90;73.40;;;18.81;55.86;100423.59;10081832;28;97430;-88
2023/06/04 18:44:29;;;;;;;3.50;2.35;;;19.80;73.90;;;18.77;56.81;100433.16;10112098;28;96771;-88
2023/06/04 18:49:32;;;;;;;6.72;2.05;;;19.80;74.20;;;18.70;56.86;100433.19;10095467;28;96793;-88
2023/06/04 18:54:35;;;;;;;2.95;1.65;;;19.70;74.20;;;18.63;56.62;100441.25;10082096;28;98420;-88
2023/06/04 18:59:38;;;;;;;6.63;2.10;;;19.70;74.40;;;18.60;57.38;100455.16;10092962;28;99400;-88
2023/06/04 19:04:41;;;;;;;4.05;2.33;;;19.60;74.70;;;18.56;57.64;100455.81;10088952;28;98522;-88
2023/06/04 19:09:44;;;;;;;3.90;1.90;;;19.60;75.30;;;18.51;58.15;100458.31;10078071;28;98645;-88
2023/06/04 19:14:47;;;;;;;3.80;2.35;;;19.60;75.80;;;18.45;59.00;100463.50;10092370;28;98218;-88
2023/06/04 19:19:52;;;;;;;5.80;2.53;;;19.50;76.10;;;18.36;59.07;100469.34;10090290;28;96637;-88
2023/06/04 19:24:55;;;;;;;6.25;3.70;;;19.40;76.30;;;18.31;59.82;100472.66;10094424;28;96754;-88
2023/06/04 19:29:58;;;;;;;5.82;2.78;;;19.30;77.00;;;18.27;59.43;100465.22;10064758;28;97690;-88
2023/06/04 19:35:01;;;;;;;4.45;2.17;;;19.30;77.00;;;18.25;60.01;100462.75;10091295;28;96825;-88
2023/06/04 19:40:05;;;;;;;3.72;2.22;;;19.30;77.30;;;18.24;59.37;100463.78;10095035;28;98456;-89
2023/06/04 19:45:09;;;;;;;4.55;2.25;;;19.30;77.20;;;18.24;59.67;100460.28;10076146;28;98581;-89
2023/06/04 19:50:14;;;;;;;3.13;1.70;;;19.30;77.20;;;18.22;60.03;100460.47;10076510;28;96773;-88
2023/06/04 19:55:17;;;;;;;5.82;2.20;;;19.30;77.40;;;18.23;59.46;100458.59;10114743;28;96601;-88
2023/06/04 20:00:21;;;;;;;5.43;2.15;;;19.30;77.40;;;18.19;59.42;100459.03;10098275;28;97892;-88
2023/06/04 20:05:24;;;;;;;3.60;2.22;;;19.30;77.50;;;18.17;60.12;100455.75;10095970;28;96881;-87
2023/06/04 20:10:27;;;;;;;3.58;2.15;;;19.30;77.70;;;18.14;60.33;100461.53;10087739;28;97818;-87
2023/06/04 20:15:33;;;;;;;3.78;1.70;;;19.20;78.00;;;18.05;60.53;100454.75;10125673;28;97040;-87
2023/06/04 20:20:36;;;;;;;5.13;2.33;;;19.20;78.20;;;18.00;61.41;100469.84;10105863;28;96716;-87
2023/06/04 20:25:39;;;;;;;4.32;2.38;;;19.10;78.60;;;17.90;61.63;100463.03;10068909;28;98618;-87
2023/06/04 20:30:42;;;;;;;3.42;1.90;;;19.00;79.00;;;17.80;62.75;100468.00;10066820;28;98633;-87
2023/06/04 20:35:45;;;;;;;4.82;1.98;;;18.90;79.70;;;17.69;63.87;100467.75;10111210;28;96527;-87
2023/06/04 20:40:48;;;;;;;4.97;2.40;;;18.70;80.30;;;17.53;64.18;100460.97;10066193;28;97381;-88
2023/06/04 20:45:53;;;;;;;3.13;2.30;;;18.60;80.90;;;17.35;64.82;100462.41;10095880;28;97275;-88
2023/06/04 20:50:58;;;;;;;3.97;1.95;;;18.40;81.40;;;17.18;64.94;100466.50;10107232;28;98237;-89